createdAt,value
2023-02-01T00:01:43.750Z,102209.88
2023-02-01T00:04:28.933Z,102222.81
2023-02-01T00:07:14.487Z,102201.34
2023-02-01T00:09:59.376Z,102217.69
2023-02-01T00:12:45.135Z,102225.50
2023-02-01T00:15:30.037Z,102238.38
2023-02-01T00:18:15.337Z,102232.22
2023-02-01T00:21:01.172Z,102229.75
2023-02-01T00:23:47.157Z,102240.31
2023-02-01T00:26:44.088Z,102230.28
2023-02-01T00:29:29.215Z,102232.88
2023-02-01T00:32:14.314Z,102233.72
2023-02-01T00:34:59.227Z,102250.91
2023-02-01T00:37:44.556Z,102245.75
2023-02-01T00:40:29.517Z,102240.66
2023-02-01T00:43:14.610Z,102202.97
2023-02-01T00:45:59.615Z,102231.19
2023-02-01T00:48:44.997Z,102210.56
2023-02-01T00:51:31.029Z,102212.31
2023-02-01T00:54:16.371Z,102230.41
2023-02-01T00:57:01.808Z,102223.53
2023-02-01T00:59:46.828Z,102213.25
2023-02-01T01:02:31.930Z,102179.00
2023-02-01T01:05:17.560Z,102207.25
2023-02-01T01:08:02.451Z,102210.66
2023-02-01T01:10:47.464Z,102207.25
2023-02-01T01:13:32.307Z,102202.00
2023-02-01T01:16:18.460Z,102199.41
2023-02-01T01:19:04.225Z,102195.13
2023-02-01T01:21:49.553Z,102196.81
2023-02-01T01:24:35.068Z,102200.25
2023-02-01T01:27:24.385Z,102207.25
2023-02-01T01:30:10.245Z,102207.34
2023-02-01T01:32:55.569Z,102207.25
2023-02-01T01:35:40.914Z,102204.72
2023-02-01T01:38:26.056Z,102194.34
2023-02-01T01:41:16.379Z,102186.56
2023-02-01T01:44:06.568Z,102172.13
2023-02-01T01:46:51.734Z,102179.00
2023-02-01T01:49:39.235Z,102183.28
2023-02-01T01:52:24.806Z,102173.91
2023-02-01T01:55:10.578Z,102186.78
2023-02-01T01:58:00.838Z,102185.03
2023-02-01T02:00:47.172Z,102184.19
2023-02-01T02:03:46.853Z,102183.31
2023-02-01T02:06:48.815Z,102184.19
2023-02-01T02:09:33.703Z,102190.22
2023-02-01T02:12:19.056Z,102170.50
2023-02-01T02:15:06.132Z,102173.03
2023-02-01T02:18:15.890Z,102174.06
2023-02-01T02:21:38.371Z,102170.50
2023-02-01T02:24:57.653Z,102173.94
2023-02-01T02:27:52.052Z,102182.50
2023-02-01T02:31:08.065Z,102186.84
2023-02-01T02:34:05.154Z,102180.88
2023-02-01T02:37:13.098Z,102176.50
2023-02-01T02:40:10.200Z,102156.63
2023-02-01T02:43:22.878Z,102167.06
2023-02-01T02:46:49.040Z,102169.59
2023-02-01T02:50:11.002Z,102158.38
2023-02-01T02:53:23.897Z,102166.03
2023-02-01T02:56:29.774Z,102171.16
2023-02-01T02:59:38.540Z,102160.00
2023-02-01T03:02:43.037Z,102159.97
2023-02-01T03:05:34.809Z,102158.31
2023-02-01T03:08:31.947Z,102139.47
2023-02-01T03:11:17.024Z,102112.88
2023-02-01T03:14:07.390Z,102154.88
2023-02-01T03:17:00.014Z,102154.03
2023-02-01T03:19:51.159Z,102160.81
2023-02-01T03:22:39.931Z,102167.75
2023-02-01T03:25:31.869Z,102173.69
2023-02-01T03:28:22.469Z,102172.75
2023-02-01T03:31:08.130Z,102171.81
2023-02-01T03:33:53.095Z,102164.00
2023-02-01T03:36:50.292Z,102166.50
2023-02-01T03:40:04.263Z,102155.22
2023-02-01T03:42:55.621Z,102154.34
2023-02-01T03:45:47.309Z,102157.81
2023-02-01T03:48:33.307Z,102152.63
2023-02-01T03:51:20.637Z,102167.28
2023-02-01T03:54:07.754Z,102156.03
2023-02-01T03:56:56.934Z,102146.66
2023-02-01T03:59:43.224Z,102152.69
2023-02-01T04:02:28.190Z,102151.78
2023-02-01T04:05:13.694Z,102161.34
2023-02-01T04:07:59.089Z,102166.44
2023-02-01T04:10:44.997Z,102143.31
2023-02-01T04:13:29.770Z,102150.19
2023-02-01T04:16:14.854Z,102155.28
2023-02-01T04:19:00.724Z,102130.41
2023-02-01T04:21:46.114Z,102142.44
2023-02-01T04:24:31.422Z,102159.59
2023-02-01T04:27:17.018Z,102162.19
2023-02-01T04:30:02.095Z,102158.78
2023-02-01T04:32:47.725Z,102156.25
2023-02-01T04:35:32.638Z,102141.69
2023-02-01T04:38:18.113Z,102142.53
2023-02-01T04:41:03.298Z,102151.09
2023-02-01T04:43:49.481Z,102152.91
2023-02-01T04:46:34.766Z,102151.97
2023-02-01T04:49:21.043Z,102147.63
2023-02-01T04:52:06.373Z,102142.44
2023-02-01T04:54:51.601Z,102112.63
2023-02-01T04:57:36.765Z,102139.03
2023-02-01T05:00:21.998Z,102147.63
2023-02-01T05:03:07.372Z,102154.53
2023-02-01T05:05:54.494Z,102156.22
2023-02-01T05:08:39.419Z,102166.66
2023-02-01T05:11:43.350Z,102159.84
2023-02-01T05:14:28.513Z,102166.72
2023-02-01T05:17:13.446Z,102165.81
2023-02-01T05:19:58.540Z,102155.72
2023-02-01T05:22:43.587Z,102169.53
2023-02-01T05:25:28.802Z,102172.06
2023-02-01T05:28:13.623Z,102156.69
2023-02-01T05:30:58.726Z,102178.13
2023-02-01T05:33:43.866Z,102170.38
2023-02-01T05:36:28.847Z,102164.41
2023-02-01T05:39:14.190Z,102154.94
2023-02-01T05:41:59.372Z,102168.75
2023-02-01T05:44:44.506Z,102140.47
2023-02-01T05:47:29.596Z,102141.34
2023-02-01T05:50:14.942Z,102175.56
2023-02-01T05:53:00.177Z,102172.19
2023-02-01T05:55:45.175Z,102163.59
2023-02-01T05:58:31.328Z,102167.84
2023-02-01T06:01:16.454Z,102168.72
2023-02-01T06:04:01.642Z,102163.63
2023-02-01T06:06:46.792Z,102125.09
2023-02-01T06:09:32.121Z,102150.00
2023-02-01T06:12:17.445Z,102163.63
2023-02-01T06:15:02.374Z,102142.25
2023-02-01T06:17:47.831Z,102173.91
2023-02-01T06:20:32.775Z,102152.56
2023-02-01T06:23:17.701Z,102163.69
2023-02-01T06:26:08.856Z,102156.13
2023-02-01T06:28:54.113Z,102174.09
2023-02-01T06:31:39.597Z,102175.78
2023-02-01T06:34:25.225Z,102167.22
2023-02-01T06:37:12.161Z,102166.22
2023-02-01T06:39:57.109Z,102173.09
2023-02-01T06:42:42.052Z,102171.41
2023-02-01T06:45:27.339Z,102172.19
2023-02-01T06:48:12.276Z,102170.44
2023-02-01T06:50:57.417Z,102162.72
2023-02-01T06:53:42.855Z,102165.38
2023-02-01T06:56:28.569Z,102167.06
2023-02-01T06:59:16.068Z,102161.81
2023-02-01T07:02:02.431Z,102173.03
2023-02-01T07:04:48.069Z,102150.75
2023-02-01T07:07:33.010Z,102171.28
2023-02-01T07:10:18.046Z,102179.06
2023-02-01T07:13:03.136Z,102166.25
2023-02-01T07:15:48.513Z,102185.03
2023-02-01T07:18:34.193Z,102170.44
2023-02-01T07:21:20.219Z,102163.69
2023-02-01T07:24:05.556Z,102199.59
2023-02-01T07:26:52.077Z,102213.38
2023-02-01T07:29:37.344Z,102216.75
2023-02-01T07:32:22.383Z,102219.25
2023-02-01T07:35:07.824Z,102218.41
2023-02-01T07:37:52.614Z,102215.69
2023-02-01T07:40:37.567Z,102205.31
2023-02-01T07:43:22.565Z,102218.28
2023-02-01T07:46:08.220Z,102225.03
2023-02-01T07:48:53.425Z,102223.25
2023-02-01T07:51:38.467Z,102227.47
2023-02-01T07:54:23.674Z,102226.47
2023-02-01T07:57:09.729Z,102235.03
2023-02-01T08:00:13.765Z,102232.44
2023-02-01T08:02:59.895Z,102224.78
2023-02-01T08:05:44.776Z,102246.13
2023-02-01T08:08:30.107Z,102253.06
2023-02-01T08:11:16.382Z,102255.59
2023-02-01T08:14:01.596Z,102246.91
2023-02-01T08:16:46.767Z,102249.47
2023-02-01T08:19:32.181Z,102244.34
2023-02-01T08:22:17.195Z,102250.41
2023-02-01T08:25:02.484Z,102234.81
2023-02-01T08:27:47.855Z,102231.44
2023-02-01T08:30:33.251Z,102234.75
2023-02-01T08:33:19.667Z,102230.47
2023-02-01T08:36:06.676Z,102238.19
2023-02-01T08:38:58.398Z,102234.59
2023-02-01T08:42:03.522Z,102241.53
2023-02-01T08:44:48.459Z,102243.97
2023-02-01T08:47:33.543Z,102253.47
2023-02-01T08:50:19.573Z,102244.72
2023-02-01T08:53:04.593Z,102255.97
2023-02-01T08:55:50.134Z,102250.69
2023-02-01T08:58:35.691Z,102239.38
2023-02-01T09:01:20.910Z,102247.28
2023-02-01T09:04:06.135Z,102239.53
2023-02-01T09:06:51.357Z,102221.25
2023-02-01T09:09:37.454Z,102226.38
2023-02-01T09:12:22.389Z,102217.69
2023-02-01T09:15:08.728Z,102228.09
2023-02-01T09:17:53.724Z,102230.69
2023-02-01T09:20:38.888Z,102230.69
2023-02-01T09:23:23.992Z,102225.47
2023-02-01T09:26:09.955Z,102228.75
2023-02-01T09:28:55.104Z,102226.97
2023-02-01T09:31:44.179Z,102234.53
2023-02-01T09:34:35.527Z,102241.34
2023-02-01T09:37:21.171Z,102240.16
2023-02-01T09:40:06.778Z,102227.91
2023-02-01T09:43:10.935Z,102226.81
2023-02-01T09:46:05.288Z,102226.38
2023-02-01T09:48:53.644Z,102223.41
2023-02-01T09:51:45.751Z,102220.69
2023-02-01T09:54:48.161Z,102213.41
2023-02-01T09:57:49.080Z,102222.56
2023-02-01T10:00:39.855Z,102215.47
2023-02-01T10:03:28.765Z,102228.09
2023-02-01T10:07:11.249Z,102223.50
2023-02-01T10:10:37.495Z,102226.44
2023-02-01T10:13:35.076Z,102219.09
2023-02-01T10:16:59.194Z,102226.66
2023-02-01T10:20:29.050Z,102214.56
2023-02-01T10:23:32.828Z,102239.22
2023-02-01T10:26:28.328Z,102232.88
2023-02-01T10:29:20.631Z,102229.09
2023-02-01T10:32:15.110Z,102216.75
2023-02-01T10:35:03.767Z,102220.88
2023-02-01T10:37:49.004Z,102208.34
2023-02-01T10:40:34.509Z,102235.19
2023-02-01T10:43:19.584Z,102221.88
2023-02-01T10:46:05.150Z,102230.31
2023-02-01T10:48:53.491Z,102230.06
2023-02-01T10:51:46.148Z,102215.91
2023-02-01T10:54:38.936Z,102219.94
2023-02-01T10:57:27.135Z,102234.28
2023-02-01T11:00:21.174Z,102232.00
2023-02-01T11:03:40.854Z,102226.25
2023-02-01T11:06:32.232Z,102220.69
2023-02-01T11:09:22.248Z,102215.78
2023-02-01T11:12:31.776Z,102223.09
2023-02-01T11:15:21.729Z,102209.97
2023-02-01T11:18:25.653Z,102203.97
2023-02-01T11:21:12.004Z,102201.66
2023-02-01T11:24:02.553Z,102199.53
2023-02-01T11:26:47.793Z,102197.31
2023-02-01T11:29:39.503Z,102186.47
2023-02-01T11:32:25.931Z,102195.72
2023-02-01T11:35:18.217Z,102192.13
2023-02-01T11:38:13.317Z,102194.38
2023-02-01T11:41:22.200Z,102199.09
2023-02-01T11:44:22.592Z,102179.81
2023-02-01T11:47:22.988Z,102193.69
2023-02-01T11:50:19.585Z,102172.53
2023-02-01T11:53:54.725Z,102187.34
2023-02-01T11:56:49.039Z,102188.31
2023-02-01T11:59:51.669Z,102179.63
2023-02-01T12:02:58.233Z,102183.47
2023-02-01T12:06:09.395Z,102193.81
2023-02-01T12:09:32.272Z,102180.56
2023-02-01T12:12:32.343Z,102177.91
2023-02-01T12:15:30.316Z,102182.41
2023-02-01T12:18:28.207Z,102180.56
2023-02-01T12:21:32.839Z,102176.13
2023-02-01T12:24:36.603Z,102168.34
2023-02-01T12:27:33.716Z,102152.13
2023-02-01T12:30:32.332Z,102155.03
2023-02-01T12:33:45.828Z,102162.59
2023-02-01T12:36:55.000Z,102148.16
2023-02-01T12:40:07.343Z,102158.97
2023-02-01T12:43:22.694Z,102151.66
2023-02-01T12:46:32.802Z,102156.13
2023-02-01T12:49:34.507Z,102132.59
2023-02-01T12:52:30.159Z,102155.50
2023-02-01T12:55:20.854Z,102144.75
2023-02-01T12:58:15.078Z,102148.38
2023-02-01T13:01:03.530Z,102145.59
2023-02-01T13:04:27.258Z,102146.16
2023-02-01T13:07:25.082Z,102127.97
2023-02-01T13:10:23.566Z,102137.22
2023-02-01T13:13:19.891Z,102136.50
2023-02-01T13:16:29.853Z,102144.22
2023-02-01T13:19:20.180Z,102139.31
2023-02-01T13:22:35.274Z,102141.94
2023-02-01T13:25:30.968Z,102132.50
2023-02-01T13:28:42.250Z,102117.06
2023-02-01T13:31:40.715Z,102129.88
2023-02-01T13:34:38.527Z,102123.75
2023-02-01T13:37:32.801Z,102114.81
2023-02-01T13:40:30.011Z,102132.09
2023-02-01T13:43:28.827Z,102128.97
2023-02-01T13:46:15.673Z,102127.41
2023-02-01T13:49:03.631Z,102110.28
2023-02-01T13:51:52.447Z,102111.97
2023-02-01T13:54:40.013Z,102121.41
2023-02-01T13:57:40.305Z,102128.28
2023-02-01T14:00:35.835Z,102106.72
2023-02-01T14:03:43.060Z,102123.03
2023-02-01T14:06:28.383Z,102121.97
2023-02-01T14:09:39.966Z,102127.16
2023-02-01T14:12:47.209Z,102112.13
2023-02-01T14:15:32.405Z,102110.47
2023-02-01T14:18:35.842Z,102105.00
2023-02-01T14:21:33.005Z,102118.22
2023-02-01T14:24:26.309Z,102115.31
2023-02-01T14:27:16.152Z,102117.25
2023-02-01T14:30:08.415Z,102109.25
2023-02-01T14:32:54.256Z,102090.97
2023-02-01T14:35:40.053Z,102106.38
2023-02-01T14:38:25.127Z,102101.56
2023-02-01T14:41:26.620Z,102095.63
2023-02-01T14:44:11.423Z,102097.38
2023-02-01T14:47:25.732Z,102093.59
2023-02-01T14:50:11.138Z,102119.22
2023-02-01T14:53:12.522Z,102108.66
2023-02-01T14:56:21.392Z,102119.19
2023-02-01T14:59:16.899Z,102115.00
2023-02-01T15:02:02.226Z,102120.47
2023-02-01T15:04:52.929Z,102115.28
2023-02-01T15:07:38.303Z,102107.63
2023-02-01T15:10:24.612Z,102098.88
2023-02-01T15:13:29.451Z,102107.22
2023-02-01T15:16:16.794Z,102114.34
2023-02-01T15:19:11.024Z,102112.75
2023-02-01T15:21:58.734Z,102113.75
2023-02-01T15:24:54.008Z,102124.09
2023-02-01T15:27:39.216Z,102115.59
2023-02-01T15:30:30.375Z,102106.88
2023-02-01T15:33:15.460Z,102118.69
2023-02-01T15:36:06.519Z,102106.94
2023-02-01T15:39:15.173Z,102127.91
2023-02-01T15:42:09.916Z,102117.81
2023-02-01T15:44:55.100Z,102126.16
2023-02-01T15:47:42.064Z,102141.50
2023-02-01T15:50:29.853Z,102135.66
2023-02-01T15:53:22.338Z,102137.63
2023-02-01T15:56:07.770Z,102147.22
2023-02-01T15:59:01.167Z,102138.94
2023-02-01T16:01:47.254Z,102144.25
2023-02-01T16:04:33.860Z,102152.25
2023-02-01T16:07:32.347Z,102141.94
2023-02-01T16:10:28.373Z,102146.16
2023-02-01T16:13:15.358Z,102150.03
2023-02-01T16:16:00.344Z,102136.38
2023-02-01T16:18:46.113Z,102134.66
2023-02-01T16:21:31.411Z,102140.06
2023-02-01T16:24:16.676Z,102142.34
2023-02-01T16:27:01.649Z,102152.91
2023-02-01T16:29:46.913Z,102160.94
2023-02-01T16:32:32.217Z,102175.84
2023-02-01T16:35:25.498Z,102178.75
2023-02-01T16:38:14.377Z,102181.53
2023-02-01T16:41:00.334Z,102179.91
2023-02-01T16:43:46.024Z,102188.41
2023-02-01T16:46:35.847Z,102198.06
2023-02-01T16:49:23.895Z,102214.69
2023-02-01T16:52:15.609Z,102198.34
2023-02-01T16:55:00.891Z,102214.03
2023-02-01T16:57:46.285Z,102212.66
2023-02-01T17:00:34.500Z,102214.84
2023-02-01T17:03:20.875Z,102219.88
2023-02-01T17:06:07.396Z,102223.78
2023-02-01T17:08:55.327Z,102229.06
2023-02-01T17:11:40.788Z,102227.28
2023-02-01T17:14:25.884Z,102233.44
2023-02-01T17:17:11.379Z,102227.53
2023-02-01T17:19:56.760Z,102229.19
2023-02-01T17:22:41.942Z,102224.75
2023-02-01T17:25:28.541Z,102227.66
2023-02-01T17:28:13.773Z,102226.19
2023-02-01T17:30:58.861Z,102235.69
2023-02-01T17:33:45.024Z,102227.91
2023-02-01T17:36:29.985Z,102237.63
2023-02-01T17:39:36.515Z,102247.28
2023-02-01T17:42:22.603Z,102236.19
2023-02-01T17:45:28.498Z,102221.69
2023-02-01T17:48:13.714Z,102223.72
2023-02-01T17:51:00.801Z,102223.00
2023-02-01T17:53:46.043Z,102237.56
2023-02-01T17:56:31.750Z,102239.25
2023-02-01T17:59:17.601Z,102224.78
2023-02-01T18:02:02.905Z,102230.72
2023-02-01T18:04:49.291Z,102238.69
2023-02-01T18:07:34.309Z,102246.59
2023-02-01T18:10:19.471Z,102249.47
2023-02-01T18:13:05.110Z,102242.69
2023-02-01T18:15:50.013Z,102255.38
2023-02-01T18:18:52.667Z,102236.66
2023-02-01T18:21:42.447Z,102249.72
2023-02-01T18:24:27.931Z,102254.94
2023-02-01T18:27:12.923Z,102264.56
2023-02-01T18:29:58.134Z,102261.22
2023-02-01T18:32:44.542Z,102263.03
2023-02-01T18:35:31.785Z,102261.38
2023-02-01T18:38:16.780Z,102253.69
2023-02-01T18:41:05.043Z,102253.81
2023-02-01T18:43:51.679Z,102257.34
2023-02-01T18:46:36.854Z,102250.47
2023-02-01T18:49:22.188Z,102235.84
2023-02-01T18:52:07.219Z,102249.59
2023-02-01T18:54:59.119Z,102240.19
2023-02-01T18:57:45.067Z,102246.19
2023-02-01T19:00:30.662Z,102234.44
2023-02-01T19:03:16.532Z,102243.81
2023-02-01T19:06:01.900Z,102248.25
2023-02-01T19:08:47.498Z,102233.75
2023-02-01T19:11:32.468Z,102240.47
2023-02-01T19:14:17.468Z,102247.50
2023-02-01T19:17:02.411Z,102246.66
2023-02-01T19:19:48.081Z,102224.88
2023-02-01T19:22:33.736Z,102246.00
2023-02-01T19:25:29.937Z,102247.69
2023-02-01T19:28:16.002Z,102252.94
2023-02-01T19:31:05.588Z,102235.13
2023-02-01T19:33:50.827Z,102255.03
2023-02-01T19:36:40.943Z,102240.41
2023-02-01T19:39:27.514Z,102249.94
2023-02-01T19:42:13.827Z,102261.34
2023-02-01T19:44:59.056Z,102257.75
2023-02-01T19:47:44.413Z,102253.59
2023-02-01T19:50:29.630Z,102225.44
2023-02-01T19:53:14.450Z,102246.66
2023-02-01T19:56:01.315Z,102254.47
2023-02-01T19:58:46.318Z,102262.53
2023-02-01T20:01:31.186Z,102251.34
2023-02-01T20:04:18.882Z,102255.69
2023-02-01T20:07:03.894Z,102249.09
2023-02-01T20:09:49.194Z,102268.03
2023-02-01T20:12:34.518Z,102269.03
2023-02-01T20:15:22.046Z,102263.13
2023-02-01T20:18:07.886Z,102261.34
2023-02-01T20:20:57.588Z,102275.94
2023-02-01T20:23:42.771Z,102275.19
2023-02-01T20:26:29.086Z,102270.06
2023-02-01T20:29:15.325Z,102271.06
2023-02-01T20:32:00.286Z,102263.28
2023-02-01T20:34:45.618Z,102266.94
2023-02-01T20:37:30.806Z,102258.41
2023-02-01T20:40:16.107Z,102265.47
2023-02-01T20:43:01.239Z,102276.06
2023-02-01T20:45:49.720Z,102268.22
2023-02-01T20:48:34.728Z,102277.88
2023-02-01T20:51:21.478Z,102276.28
2023-02-01T20:54:06.735Z,102275.31
2023-02-01T20:56:51.752Z,102277.13
2023-02-01T20:59:36.940Z,102290.22
2023-02-01T21:02:22.446Z,102279.88
2023-02-01T21:05:08.163Z,102293.84
2023-02-01T21:07:53.427Z,102285.38
2023-02-01T21:10:39.361Z,102292.38
2023-02-01T21:13:30.475Z,102281.22
2023-02-01T21:16:15.932Z,102295.81
2023-02-01T21:19:01.037Z,102297.59
2023-02-01T21:21:46.159Z,102283.09
2023-02-01T21:24:31.323Z,102283.00
2023-02-01T21:27:16.476Z,102286.38
2023-02-01T21:30:01.605Z,102288.97
2023-02-01T21:32:49.732Z,102290.69
2023-02-01T21:35:34.875Z,102313.16
2023-02-01T21:38:20.455Z,102311.38
2023-02-01T21:41:24.431Z,102320.75
2023-02-01T21:44:10.128Z,102321.53
2023-02-01T21:46:55.664Z,102317.28
2023-02-01T21:49:40.888Z,102316.38
2023-02-01T21:52:26.391Z,102331.00
2023-02-01T21:55:13.004Z,102318.75
2023-02-01T21:57:57.780Z,102323.09
2023-02-01T22:00:47.375Z,102320.50
2023-02-01T22:03:32.598Z,102316.97
2023-02-01T22:06:32.138Z,102312.50
2023-02-01T22:09:25.685Z,102321.03
2023-02-01T22:12:14.847Z,102319.34
2023-02-01T22:14:59.857Z,102320.19
2023-02-01T22:17:44.978Z,102315.81
2023-02-01T22:20:30.395Z,102320.16
2023-02-01T22:23:16.174Z,102331.34
2023-02-01T22:26:08.776Z,102326.16
2023-02-01T22:28:54.388Z,102322.75
2023-02-01T22:31:40.091Z,102324.34
2023-02-01T22:34:24.953Z,102329.53
2023-02-01T22:37:11.286Z,102322.88
2023-02-01T22:39:58.189Z,102339.88
2023-02-01T22:42:43.434Z,102342.50
2023-02-01T22:45:28.742Z,102338.22
2023-02-01T22:48:13.648Z,102328.88
2023-02-01T22:51:00.039Z,102339.91
2023-02-01T22:53:45.859Z,102334.78
2023-02-01T22:56:34.140Z,102332.16
2023-02-01T22:59:19.158Z,102332.16
2023-02-01T23:02:04.354Z,102335.56
2023-02-01T23:04:49.383Z,102323.63
2023-02-01T23:07:34.374Z,102328.84
2023-02-01T23:10:20.228Z,102330.72
2023-02-01T23:13:05.466Z,102330.72
2023-02-01T23:15:50.285Z,102315.28
2023-02-01T23:18:35.623Z,102321.56
2023-02-01T23:21:22.506Z,102318.22
2023-02-01T23:24:10.041Z,102319.25
2023-02-01T23:26:55.541Z,102318.28
2023-02-01T23:29:40.983Z,102314.94
2023-02-01T23:32:26.202Z,102315.88
2023-02-01T23:35:11.274Z,102331.19
2023-02-01T23:37:56.351Z,102330.16
2023-02-01T23:40:41.289Z,102326.91
2023-02-01T23:43:45.943Z,102333.66
2023-02-01T23:46:41.159Z,102339.59
2023-02-01T23:49:26.200Z,102337.81
2023-02-01T23:52:11.570Z,102340.41
2023-02-01T23:54:56.709Z,102338.59
2023-02-01T23:57:41.707Z,102327.31
